createdAt,value
2023-01-03T00:00:08.770Z,1006.44
2023-01-03T00:00:19.046Z,1006.44
2023-01-03T00:00:29.430Z,1006.45
2023-01-03T00:00:39.834Z,1006.45
2023-01-03T00:00:50.129Z,1006.45
2023-01-03T00:01:00.464Z,1006.45
2023-01-03T00:01:10.679Z,1006.45
2023-01-03T00:01:20.946Z,1006.45
2023-01-03T00:01:31.181Z,1006.45
2023-01-03T00:01:41.433Z,1006.45
2023-01-03T00:01:51.756Z,1006.45
2023-01-03T00:02:02.031Z,1006.44
2023-01-03T00:02:12.331Z,1006.44
2023-01-03T00:02:22.657Z,1006.43
2023-01-03T00:02:33.086Z,1006.42
2023-01-03T00:02:43.372Z,1006.41
2023-01-03T00:02:53.717Z,1006.42
2023-01-03T00:03:03.962Z,1006.42
2023-01-03T00:03:14.203Z,1006.42
2023-01-03T00:03:24.444Z,1006.43
2023-01-03T00:03:34.682Z,1006.43
2023-01-03T00:03:45.114Z,1006.42
2023-01-03T00:03:55.196Z,1006.42
2023-01-03T00:04:05.582Z,1006.41
2023-01-03T00:04:16.015Z,1006.41
2023-01-03T00:04:26.223Z,1006.41
2023-01-03T00:04:36.560Z,1006.41
2023-01-03T00:04:49.601Z,1006.41
2023-01-03T00:04:57.240Z,1006.40
2023-01-03T00:05:07.469Z,1006.40
2023-01-03T00:05:17.694Z,1006.40
2023-01-03T00:05:27.966Z,1006.40
2023-01-03T00:05:38.181Z,1006.39
2023-01-03T00:05:48.428Z,1006.38
2023-01-03T00:05:58.832Z,1006.38
2023-01-03T00:06:09.038Z,1006.38
2023-01-03T00:06:19.300Z,1006.39
2023-01-03T00:06:29.525Z,1006.39
2023-01-03T00:06:39.771Z,1006.39
2023-01-03T00:06:50.037Z,1006.39
2023-01-03T00:07:00.286Z,1006.39
2023-01-03T00:07:10.510Z,1006.39
2023-01-03T00:07:20.752Z,1006.39
2023-01-03T00:07:30.996Z,1006.38
2023-01-03T00:07:41.261Z,1006.38
2023-01-03T00:07:51.496Z,1006.38
2023-01-03T00:08:01.746Z,1006.38
2023-01-03T00:08:11.983Z,1006.38
2023-01-03T00:08:22.228Z,1006.38
2023-01-03T00:08:32.473Z,1006.39
2023-01-03T00:08:42.715Z,1006.39
2023-01-03T00:08:52.973Z,1006.39
2023-01-03T00:09:03.217Z,1006.39
2023-01-03T00:09:13.489Z,1006.39
2023-01-03T00:09:23.693Z,1006.39
2023-01-03T00:09:33.934Z,1006.39
2023-01-03T00:09:44.177Z,1006.40
2023-01-03T00:09:54.442Z,1006.39
2023-01-03T00:10:04.667Z,1006.40
2023-01-03T00:10:14.924Z,1006.40
2023-01-03T00:10:25.162Z,1006.39
2023-01-03T00:10:35.410Z,1006.40
2023-01-03T00:10:45.643Z,1006.39
2023-01-03T00:10:55.890Z,1006.40
2023-01-03T00:11:06.143Z,1006.39
2023-01-03T00:11:16.388Z,1006.40
2023-01-03T00:11:26.632Z,1006.39
2023-01-03T00:11:36.883Z,1006.39
2023-01-03T00:11:47.122Z,1006.39
2023-01-03T00:11:57.385Z,1006.38
2023-01-03T00:12:07.624Z,1006.38
2023-01-03T00:12:17.871Z,1006.38
2023-01-03T00:12:31.065Z,1006.38
2023-01-03T00:12:38.459Z,1006.39
2023-01-03T00:12:48.687Z,1006.39
2023-01-03T00:12:58.936Z,1006.38
2023-01-03T00:13:09.169Z,1006.38
2023-01-03T00:13:19.414Z,1006.38
2023-01-03T00:13:29.661Z,1006.38
2023-01-03T00:13:39.914Z,1006.38
2023-01-03T00:13:50.169Z,1006.38
2023-01-03T00:14:00.391Z,1006.38
2023-01-03T00:14:10.651Z,1006.39
2023-01-03T00:14:20.880Z,1006.38
2023-01-03T00:14:31.133Z,1006.39
2023-01-03T00:14:41.381Z,1006.39
2023-01-03T00:14:51.626Z,1006.39
2023-01-03T00:15:01.858Z,1006.40
2023-01-03T00:15:12.115Z,1006.40
2023-01-03T00:15:22.356Z,1006.40
2023-01-03T00:15:32.656Z,1006.40
2023-01-03T00:15:42.870Z,1006.40
2023-01-03T00:15:53.138Z,1006.40
2023-01-03T00:16:03.380Z,1006.39
2023-01-03T00:16:13.615Z,1006.39
2023-01-03T00:16:23.902Z,1006.39
2023-01-03T00:16:34.148Z,1006.39
2023-01-03T00:16:44.429Z,1006.39
2023-01-03T00:16:54.717Z,1006.38
2023-01-03T00:17:05.051Z,1006.39
2023-01-03T00:17:15.498Z,1006.39
2023-01-03T00:17:25.726Z,1006.39
2023-01-03T00:17:35.969Z,1006.38
2023-01-03T00:17:46.222Z,1006.38
2023-01-03T00:17:56.496Z,1006.38
2023-01-03T00:18:06.708Z,1006.38
2023-01-03T00:18:16.943Z,1006.38
2023-01-03T00:18:27.189Z,1006.38
2023-01-03T00:18:37.429Z,1006.38
2023-01-03T00:18:47.676Z,1006.38
2023-01-03T00:18:57.957Z,1006.39
2023-01-03T00:19:08.176Z,1006.39
2023-01-03T00:19:18.409Z,1006.39
2023-01-03T00:19:28.652Z,1006.39
2023-01-03T00:19:38.920Z,1006.39
2023-01-03T00:19:49.151Z,1006.40
2023-01-03T00:19:59.392Z,1006.40
2023-01-03T00:20:09.640Z,1006.40
2023-01-03T00:20:19.878Z,1006.40
2023-01-03T00:20:30.130Z,1006.40
2023-01-03T00:20:40.373Z,1006.40
2023-01-03T00:20:50.633Z,1006.40
2023-01-03T00:21:00.871Z,1006.40
2023-01-03T00:21:11.136Z,1006.41
2023-01-03T00:21:21.372Z,1006.41
2023-01-03T00:21:31.612Z,1006.40
2023-01-03T00:21:41.860Z,1006.40
2023-01-03T00:21:52.101Z,1006.41
2023-01-03T00:22:02.337Z,1006.41
2023-01-03T00:22:12.633Z,1006.40
2023-01-03T00:22:22.833Z,1006.40
2023-01-03T00:22:33.084Z,1006.40
2023-01-03T00:22:43.323Z,1006.41
2023-01-03T00:22:53.648Z,1006.41
2023-01-03T00:23:03.904Z,1006.41
2023-01-03T00:23:14.105Z,1006.41
2023-01-03T00:23:24.352Z,1006.42
2023-01-03T00:23:34.594Z,1006.42
2023-01-03T00:23:44.849Z,1006.42
2023-01-03T00:23:55.088Z,1006.42
2023-01-03T00:24:05.344Z,1006.43
2023-01-03T00:24:15.586Z,1006.42
2023-01-03T00:24:25.834Z,1006.42
2023-01-03T00:24:36.120Z,1006.41
2023-01-03T00:24:46.357Z,1006.42
2023-01-03T00:24:56.586Z,1006.42
2023-01-03T00:25:06.831Z,1006.43
2023-01-03T00:25:17.097Z,1006.42
2023-01-03T00:25:27.360Z,1006.41
2023-01-03T00:25:37.574Z,1006.41
2023-01-03T00:25:47.817Z,1006.42
2023-01-03T00:25:58.073Z,1006.42
2023-01-03T00:26:08.340Z,1006.42
2023-01-03T00:26:18.579Z,1006.42
2023-01-03T00:26:28.881Z,1006.43
2023-01-03T00:26:39.150Z,1006.43
2023-01-03T00:26:49.392Z,1006.43
2023-01-03T00:26:59.638Z,1006.43
2023-01-03T00:27:09.887Z,1006.43
2023-01-03T00:27:20.169Z,1006.44
2023-01-03T00:27:30.376Z,1006.43
2023-01-03T00:27:40.637Z,1006.43
2023-01-03T00:27:50.888Z,1006.43
2023-01-03T00:28:01.106Z,1006.43
2023-01-03T00:28:11.382Z,1006.43
2023-01-03T00:28:21.604Z,1006.43
2023-01-03T00:28:31.848Z,1006.44
2023-01-03T00:28:42.095Z,1006.43
2023-01-03T00:28:52.345Z,1006.43
2023-01-03T00:29:02.589Z,1006.43
2023-01-03T00:29:12.830Z,1006.44
2023-01-03T00:29:23.080Z,1006.44
2023-01-03T00:29:33.341Z,1006.44
2023-01-03T00:29:43.579Z,1006.45
2023-01-03T00:29:53.805Z,1006.46
2023-01-03T00:30:04.061Z,1006.46
2023-01-03T00:30:14.294Z,1006.46
2023-01-03T00:30:24.536Z,1006.46
2023-01-03T00:30:34.812Z,1006.46
2023-01-03T00:30:45.089Z,1006.46
2023-01-03T00:30:55.404Z,1006.46
2023-01-03T00:31:05.727Z,1006.46
2023-01-03T00:31:16.010Z,1006.46
2023-01-03T00:31:26.299Z,1006.46
2023-01-03T00:31:36.536Z,1006.46
2023-01-03T00:31:46.757Z,1006.46
2023-01-03T00:31:57.009Z,1006.46
2023-01-03T00:32:07.251Z,1006.46
2023-01-03T00:32:17.506Z,1006.46
2023-01-03T00:32:27.745Z,1006.46
2023-01-03T00:32:37.997Z,1006.46
2023-01-03T00:32:48.242Z,1006.45
2023-01-03T00:32:58.578Z,1006.46
2023-01-03T00:33:08.782Z,1006.46
2023-01-03T00:33:19.021Z,1006.45
2023-01-03T00:33:29.270Z,1006.45
2023-01-03T00:33:39.510Z,1006.45
2023-01-03T00:33:49.754Z,1006.45
2023-01-03T00:34:00.026Z,1006.45
2023-01-03T00:34:10.265Z,1006.45
2023-01-03T00:34:20.495Z,1006.45
2023-01-03T00:34:30.730Z,1006.45
2023-01-03T00:34:40.975Z,1006.45
2023-01-03T00:34:51.218Z,1006.46
2023-01-03T00:35:05.016Z,1006.46
2023-01-03T00:35:11.752Z,1006.46
2023-01-03T00:35:21.989Z,1006.46
2023-01-03T00:35:32.240Z,1006.45
2023-01-03T00:35:42.489Z,1006.45
2023-01-03T00:35:52.738Z,1006.45
2023-01-03T00:36:02.991Z,1006.45
2023-01-03T00:36:13.252Z,1006.45
2023-01-03T00:36:23.479Z,1006.45
2023-01-03T00:36:33.731Z,1006.45
2023-01-03T00:36:43.981Z,1006.45
2023-01-03T00:36:54.257Z,1006.44
2023-01-03T00:37:04.507Z,1006.44
2023-01-03T00:37:14.740Z,1006.44
2023-01-03T00:37:24.998Z,1006.44
2023-01-03T00:37:35.237Z,1006.44
2023-01-03T00:37:45.477Z,1006.44
2023-01-03T00:37:55.724Z,1006.44
2023-01-03T00:38:05.970Z,1006.44
2023-01-03T00:38:16.224Z,1006.44
2023-01-03T00:38:26.453Z,1006.45
2023-01-03T00:38:36.707Z,1006.45
2023-01-03T00:38:46.970Z,1006.45
2023-01-03T00:38:57.195Z,1006.45
2023-01-03T00:39:07.436Z,1006.45
2023-01-03T00:39:17.695Z,1006.46
2023-01-03T00:39:27.948Z,1006.46
2023-01-03T00:39:38.177Z,1006.46
2023-01-03T00:39:48.418Z,1006.46
2023-01-03T00:39:58.663Z,1006.46
2023-01-03T00:40:08.916Z,1006.47
2023-01-03T00:40:19.219Z,1006.47
2023-01-03T00:40:29.569Z,1006.46
2023-01-03T00:40:39.812Z,1006.47
2023-01-03T00:40:50.069Z,1006.47
2023-01-03T00:41:00.318Z,1006.47
2023-01-03T00:41:10.578Z,1006.46
2023-01-03T00:41:20.816Z,1006.46
2023-01-03T00:41:31.065Z,1006.46
2023-01-03T00:41:41.320Z,1006.46
2023-01-03T00:41:51.604Z,1006.46
2023-01-03T00:42:01.852Z,1006.46
2023-01-03T00:42:12.077Z,1006.46
2023-01-03T00:42:22.306Z,1006.47
2023-01-03T00:42:32.604Z,1006.47
2023-01-03T00:42:42.809Z,1006.47
2023-01-03T00:42:53.053Z,1006.47
2023-01-03T00:43:03.310Z,1006.47
2023-01-03T00:43:13.564Z,1006.46
2023-01-03T00:43:23.866Z,1006.46
2023-01-03T00:43:34.079Z,1006.45
2023-01-03T00:43:44.349Z,1006.45
2023-01-03T00:43:54.578Z,1006.45
2023-01-03T00:44:04.852Z,1006.44
2023-01-03T00:44:15.081Z,1006.45
2023-01-03T00:44:25.319Z,1006.45
2023-01-03T00:44:35.561Z,1006.45
2023-01-03T00:44:45.807Z,1006.45
2023-01-03T00:44:56.051Z,1006.44
2023-01-03T00:45:09.678Z,1006.44
2023-01-03T00:45:19.873Z,1006.45
2023-01-03T00:45:29.879Z,1006.46
2023-01-03T00:45:38.461Z,1006.45
2023-01-03T00:45:47.892Z,1006.45
2023-01-03T00:45:58.162Z,1006.45
2023-01-03T00:46:08.481Z,1006.45
2023-01-03T00:46:18.838Z,1006.46
2023-01-03T00:46:29.150Z,1006.47
2023-01-03T00:46:39.439Z,1006.46
2023-01-03T00:46:49.707Z,1006.47
2023-01-03T00:46:59.942Z,1006.47
2023-01-03T00:47:10.193Z,1006.47
2023-01-03T00:47:20.435Z,1006.48
2023-01-03T00:47:30.674Z,1006.49
2023-01-03T00:47:40.918Z,1006.48
2023-01-03T00:47:51.161Z,1006.48
2023-01-03T00:48:01.409Z,1006.48
2023-01-03T00:48:11.670Z,1006.49
2023-01-03T00:48:21.965Z,1006.49
2023-01-03T00:48:32.219Z,1006.49
2023-01-03T00:48:42.444Z,1006.49
2023-01-03T00:48:52.687Z,1006.49
2023-01-03T00:49:02.929Z,1006.49
2023-01-03T00:49:13.174Z,1006.49
2023-01-03T00:49:23.418Z,1006.49
2023-01-03T00:49:33.665Z,1006.49
2023-01-03T00:49:43.906Z,1006.49
2023-01-03T00:49:54.150Z,1006.49
2023-01-03T00:50:04.406Z,1006.49
2023-01-03T00:50:14.641Z,1006.49
2023-01-03T00:50:24.895Z,1006.49
2023-01-03T00:50:35.124Z,1006.49
2023-01-03T00:50:45.372Z,1006.49
2023-01-03T00:50:55.612Z,1006.49
2023-01-03T00:51:05.871Z,1006.49
2023-01-03T00:51:16.143Z,1006.49
2023-01-03T00:51:26.364Z,1006.50
2023-01-03T00:51:36.604Z,1006.50
2023-01-03T00:51:46.854Z,1006.50
2023-01-03T00:51:57.110Z,1006.50
2023-01-03T00:52:07.347Z,1006.50
2023-01-03T00:52:17.608Z,1006.50
2023-01-03T00:52:27.848Z,1006.50
2023-01-03T00:52:38.091Z,1006.50
2023-01-03T00:52:50.424Z,1006.50
2023-01-03T00:52:58.737Z,1006.50
2023-01-03T00:53:08.981Z,1006.50
2023-01-03T00:53:19.223Z,1006.50
2023-01-03T00:53:29.467Z,1006.50
2023-01-03T00:53:39.718Z,1006.50
2023-01-03T00:53:49.961Z,1006.51
2023-01-03T00:54:00.204Z,1006.51
2023-01-03T00:54:10.449Z,1006.51
2023-01-03T00:54:20.695Z,1006.51
2023-01-03T00:54:30.944Z,1006.51
2023-01-03T00:54:41.190Z,1006.52
2023-01-03T00:54:51.433Z,1006.52
2023-01-03T00:55:01.692Z,1006.51
2023-01-03T00:55:11.920Z,1006.51
2023-01-03T00:55:22.162Z,1006.52
2023-01-03T00:55:32.421Z,1006.52
2023-01-03T00:55:42.667Z,1006.53
2023-01-03T00:55:52.911Z,1006.53
2023-01-03T00:56:03.170Z,1006.53
2023-01-03T00:56:13.406Z,1006.53
2023-01-03T00:56:23.651Z,1006.53
2023-01-03T00:56:33.895Z,1006.54
2023-01-03T00:56:44.148Z,1006.53
2023-01-03T00:56:54.385Z,1006.54
2023-01-03T00:57:04.627Z,1006.54
2023-01-03T00:57:14.883Z,1006.54
2023-01-03T00:57:25.118Z,1006.54
2023-01-03T00:57:35.373Z,1006.53
2023-01-03T00:57:45.660Z,1006.53
2023-01-03T00:57:55.898Z,1006.54
2023-01-03T00:58:06.143Z,1006.54
2023-01-03T00:58:16.398Z,1006.55
2023-01-03T00:58:26.663Z,1006.55
2023-01-03T00:58:36.897Z,1006.55
2023-01-03T00:58:47.140Z,1006.55
2023-01-03T00:58:57.384Z,1006.55
2023-01-03T00:59:07.650Z,1006.55
2023-01-03T00:59:17.884Z,1006.55
2023-01-03T00:59:28.126Z,1006.56
2023-01-03T00:59:38.372Z,1006.57
2023-01-03T00:59:48.614Z,1006.57
2023-01-03T00:59:58.860Z,1006.58
2023-01-03T01:00:09.110Z,1006.58
2023-01-03T01:00:19.374Z,1006.58
2023-01-03T01:00:29.612Z,1006.58
2023-01-03T01:00:39.918Z,1006.58
2023-01-03T01:00:50.152Z,1006.59
2023-01-03T01:01:00.431Z,1006.59
2023-01-03T01:01:10.794Z,1006.59
2023-01-03T01:01:21.255Z,1006.60
2023-01-03T01:01:31.515Z,1006.60
2023-01-03T01:01:46.759Z,1006.60
2023-01-03T01:01:53.179Z,1006.60
2023-01-03T01:02:02.594Z,1006.60
2023-01-03T01:02:12.944Z,1006.61
2023-01-03T01:02:23.294Z,1006.61
2023-01-03T01:02:33.709Z,1006.62
2023-01-03T01:02:44.182Z,1006.62
2023-01-03T01:02:54.266Z,1006.62
2023-01-03T01:03:04.568Z,1006.62
2023-01-03T01:03:14.802Z,1006.61
2023-01-03T01:03:25.185Z,1006.62
2023-01-03T01:03:35.276Z,1006.62
2023-01-03T01:03:45.666Z,1006.62
2023-01-03T01:03:55.985Z,1006.62
2023-01-03T01:04:06.313Z,1006.62
2023-01-03T01:04:16.545Z,1006.63
2023-01-03T01:04:26.803Z,1006.63
2023-01-03T01:04:37.054Z,1006.63
2023-01-03T01:04:47.297Z,1006.63
2023-01-03T01:04:57.539Z,1006.63
2023-01-03T01:05:07.787Z,1006.64
2023-01-03T01:05:18.057Z,1006.64
2023-01-03T01:05:28.276Z,1006.64
2023-01-03T01:05:38.546Z,1006.64
2023-01-03T01:05:48.795Z,1006.64
2023-01-03T01:05:59.033Z,1006.65
2023-01-03T01:06:09.288Z,1006.65
2023-01-03T01:06:19.559Z,1006.65
2023-01-03T01:06:29.801Z,1006.65
2023-01-03T01:06:40.069Z,1006.65
2023-01-03T01:06:50.381Z,1006.65
2023-01-03T01:07:00.575Z,1006.65
2023-01-03T01:07:10.848Z,1006.65
2023-01-03T01:07:21.069Z,1006.65
2023-01-03T01:07:31.318Z,1006.65
2023-01-03T01:07:41.571Z,1006.65
2023-01-03T01:07:51.812Z,1006.65
2023-01-03T01:08:02.056Z,1006.65
2023-01-03T01:08:12.314Z,1006.65
2023-01-03T01:08:22.557Z,1006.65
2023-01-03T01:08:32.791Z,1006.65
2023-01-03T01:08:43.036Z,1006.65
2023-01-03T01:08:53.280Z,1006.65
2023-01-03T01:09:03.524Z,1006.66
2023-01-03T01:09:13.769Z,1006.66
2023-01-03T01:09:24.014Z,1006.66
2023-01-03T01:09:34.254Z,1006.66
2023-01-03T01:09:44.506Z,1006.66
2023-01-03T01:09:54.750Z,1006.66
2023-01-03T01:10:05.010Z,1006.66
2023-01-03T01:10:15.244Z,1006.66
2023-01-03T01:10:25.481Z,1006.66
2023-01-03T01:10:35.754Z,1006.67
2023-01-03T01:10:46.046Z,1006.67
2023-01-03T01:10:56.302Z,1006.67
2023-01-03T01:11:06.531Z,1006.67
2023-01-03T01:11:16.773Z,1006.67
2023-01-03T01:11:27.013Z,1006.68
2023-01-03T01:11:37.265Z,1006.68
2023-01-03T01:11:47.508Z,1006.68
2023-01-03T01:11:57.776Z,1006.69
2023-01-03T01:12:08.003Z,1006.69
2023-01-03T01:12:18.243Z,1006.69
2023-01-03T01:12:28.481Z,1006.69
2023-01-03T01:12:38.720Z,1006.70
2023-01-03T01:12:48.963Z,1006.70
2023-01-03T01:12:59.210Z,1006.70
2023-01-03T01:13:09.455Z,1006.70
2023-01-03T01:13:19.707Z,1006.70
2023-01-03T01:13:29.977Z,1006.70
2023-01-03T01:13:40.215Z,1006.70
2023-01-03T01:13:50.453Z,1006.70
2023-01-03T01:14:00.709Z,1006.70
2023-01-03T01:14:10.945Z,1006.70
2023-01-03T01:14:21.214Z,1006.70
2023-01-03T01:14:31.440Z,1006.70
2023-01-03T01:14:41.680Z,1006.70
2023-01-03T01:14:51.920Z,1006.70
2023-01-03T01:15:02.176Z,1006.70
2023-01-03T01:15:12.428Z,1006.70
2023-01-03T01:15:22.661Z,1006.70
2023-01-03T01:15:32.937Z,1006.70
2023-01-03T01:15:43.198Z,1006.70
2023-01-03T01:15:53.484Z,1006.70
2023-01-03T01:16:03.859Z,1006.71
2023-01-03T01:16:13.982Z,1006.71
2023-01-03T01:16:24.319Z,1006.72
2023-01-03T01:16:34.541Z,1006.72
2023-01-03T01:16:44.786Z,1006.72
2023-01-03T01:16:55.063Z,1006.73
2023-01-03T01:17:05.299Z,1006.73
2023-01-03T01:17:20.673Z,1006.73
2023-01-03T01:17:26.953Z,1006.73
2023-01-03T01:17:36.341Z,1006.73
2023-01-03T01:17:46.586Z,1006.74
2023-01-03T01:17:56.825Z,1006.74
2023-01-03T01:18:07.071Z,1006.74
2023-01-03T01:18:17.313Z,1006.74
2023-01-03T01:18:27.558Z,1006.74
2023-01-03T01:18:37.815Z,1006.74
2023-01-03T01:18:48.067Z,1006.75
2023-01-03T01:18:58.309Z,1006.75
2023-01-03T01:19:08.549Z,1006.75
2023-01-03T01:19:18.794Z,1006.76
2023-01-03T01:19:29.037Z,1006.76
2023-01-03T01:19:39.290Z,1006.76
2023-01-03T01:19:49.544Z,1006.77
2023-01-03T01:19:59.773Z,1006.77
2023-01-03T01:20:10.029Z,1006.77
2023-01-03T01:20:20.276Z,1006.77
2023-01-03T01:20:30.512Z,1006.77
2023-01-03T01:20:40.802Z,1006.77
2023-01-03T01:20:51.074Z,1006.77
2023-01-03T01:21:01.303Z,1006.77
2023-01-03T01:21:11.540Z,1006.77
2023-01-03T01:21:21.789Z,1006.77
2023-01-03T01:21:32.065Z,1006.78
2023-01-03T01:21:42.275Z,1006.77
2023-01-03T01:21:52.532Z,1006.77
2023-01-03T01:22:02.789Z,1006.77
2023-01-03T01:22:13.019Z,1006.78
2023-01-03T01:22:23.264Z,1006.78
2023-01-03T01:22:33.507Z,1006.78
2023-01-03T01:22:43.755Z,1006.77
2023-01-03T01:22:54.005Z,1006.78
2023-01-03T01:23:04.243Z,1006.78
2023-01-03T01:23:14.493Z,1006.78
2023-01-03T01:23:24.736Z,1006.79
2023-01-03T01:23:34.986Z,1006.79
2023-01-03T01:23:45.224Z,1006.79
2023-01-03T01:23:55.466Z,1006.79
2023-01-03T01:24:05.718Z,1006.79
2023-01-03T01:24:18.180Z,1006.80
2023-01-03T01:24:26.295Z,1006.80
2023-01-03T01:24:36.546Z,1006.79
2023-01-03T01:24:46.781Z,1006.80
2023-01-03T01:24:57.021Z,1006.80
2023-01-03T01:25:07.270Z,1006.80
2023-01-03T01:25:17.515Z,1006.80
2023-01-03T01:25:27.754Z,1006.80
2023-01-03T01:25:38.014Z,1006.81
2023-01-03T01:25:48.251Z,1006.80
2023-01-03T01:25:58.496Z,1006.80
2023-01-03T01:26:08.764Z,1006.80
2023-01-03T01:26:18.992Z,1006.79
2023-01-03T01:26:29.298Z,1006.80
2023-01-03T01:26:39.544Z,1006.79
2023-01-03T01:26:49.811Z,1006.79
2023-01-03T01:27:00.064Z,1006.79
2023-01-03T01:27:10.300Z,1006.78
2023-01-03T01:27:20.564Z,1006.78
2023-01-03T01:27:30.797Z,1006.78
2023-01-03T01:27:41.131Z,1006.78
2023-01-03T01:27:51.403Z,1006.78
2023-01-03T01:28:01.638Z,1006.79
2023-01-03T01:28:11.886Z,1006.79
2023-01-03T01:28:22.128Z,1006.79
2023-01-03T01:28:32.381Z,1006.79
2023-01-03T01:28:42.647Z,1006.79
2023-01-03T01:28:52.868Z,1006.79
2023-01-03T01:29:03.108Z,1006.80
2023-01-03T01:29:13.362Z,1006.80
2023-01-03T01:29:23.597Z,1006.80
2023-01-03T01:29:33.841Z,1006.80
2023-01-03T01:29:44.090Z,1006.81
2023-01-03T01:29:54.329Z,1006.81
2023-01-03T01:30:04.578Z,1006.81
2023-01-03T01:30:14.816Z,1006.81
2023-01-03T01:30:25.061Z,1006.81
2023-01-03T01:30:35.308Z,1006.81
2023-01-03T01:30:45.604Z,1006.81
2023-01-03T01:30:55.906Z,1006.81
2023-01-03T01:31:06.248Z,1006.81
2023-01-03T01:31:16.626Z,1006.81
2023-01-03T01:31:27.154Z,1006.81
2023-01-03T01:31:37.301Z,1006.81
2023-01-03T01:31:47.598Z,1006.81
2023-01-03T01:31:57.834Z,1006.82
2023-01-03T01:32:08.095Z,1006.82
2023-01-03T01:32:18.340Z,1006.83
2023-01-03T01:32:28.578Z,1006.83
2023-01-03T01:32:38.820Z,1006.83
2023-01-03T01:32:49.057Z,1006.83
2023-01-03T01:32:59.306Z,1006.83
2023-01-03T01:33:09.549Z,1006.83
2023-01-03T01:33:19.809Z,1006.83
2023-01-03T01:33:30.049Z,1006.83
2023-01-03T01:33:40.293Z,1006.84
2023-01-03T01:33:50.536Z,1006.85
2023-01-03T01:34:00.776Z,1006.85
2023-01-03T01:34:11.034Z,1006.85
2023-01-03T01:34:21.273Z,1006.85
2023-01-03T01:34:31.508Z,1006.86
2023-01-03T01:34:41.756Z,1006.86
2023-01-03T01:34:52.000Z,1006.86
2023-01-03T01:35:02.246Z,1006.87
2023-01-03T01:35:12.506Z,1006.87
2023-01-03T01:35:22.734Z,1006.87
2023-01-03T01:35:32.978Z,1006.87
2023-01-03T01:35:43.223Z,1006.88
2023-01-03T01:35:53.466Z,1006.89
2023-01-03T01:36:03.729Z,1006.89
2023-01-03T01:36:13.977Z,1006.89
2023-01-03T01:36:24.238Z,1006.89
2023-01-03T01:36:34.479Z,1006.89
2023-01-03T01:36:44.708Z,1006.89
2023-01-03T01:36:54.981Z,1006.89
2023-01-03T01:37:05.228Z,1006.89
2023-01-03T01:37:15.472Z,1006.90
2023-01-03T01:37:25.716Z,1006.90
2023-01-03T01:37:35.964Z,1006.90
2023-01-03T01:37:46.251Z,1006.90
2023-01-03T01:37:56.479Z,1006.90
2023-01-03T01:38:06.723Z,1006.90
2023-01-03T01:38:16.971Z,1006.90
2023-01-03T01:38:27.206Z,1006.90
2023-01-03T01:38:37.464Z,1006.90
2023-01-03T01:38:47.697Z,1006.90
2023-01-03T01:38:57.967Z,1006.90
2023-01-03T01:39:08.189Z,1006.90
2023-01-03T01:39:18.428Z,1006.90
2023-01-03T01:39:28.676Z,1006.91
2023-01-03T01:39:38.924Z,1006.91
2023-01-03T01:39:49.168Z,1006.91
2023-01-03T01:39:59.461Z,1006.91
2023-01-03T01:40:09.688Z,1006.92
2023-01-03T01:40:19.925Z,1006.92
2023-01-03T01:40:30.165Z,1006.93
2023-01-03T01:40:40.412Z,1006.93
2023-01-03T01:40:50.655Z,1006.93
2023-01-03T01:41:00.919Z,1006.93
2023-01-03T01:41:11.168Z,1006.93
2023-01-03T01:41:21.399Z,1006.94
2023-01-03T01:41:31.643Z,1006.94
2023-01-03T01:41:41.970Z,1006.94
2023-01-03T01:41:52.167Z,1006.94
2023-01-03T01:42:02.415Z,1006.94
2023-01-03T01:42:18.273Z,1006.95
2023-01-03T01:42:30.267Z,1006.95
2023-01-03T01:42:34.421Z,1006.96
2023-01-03T01:42:43.807Z,1006.96
2023-01-03T01:42:54.046Z,1006.97
2023-01-03T01:43:04.285Z,1006.97
2023-01-03T01:43:14.531Z,1006.97
2023-01-03T01:43:24.775Z,1006.97
2023-01-03T01:43:35.067Z,1006.97
2023-01-03T01:43:45.271Z,1006.97
2023-01-03T01:43:55.518Z,1006.97
2023-01-03T01:44:05.762Z,1006.97
2023-01-03T01:44:16.079Z,1006.98
2023-01-03T01:44:26.382Z,1006.98
2023-01-03T01:44:36.607Z,1006.98
2023-01-03T01:44:46.861Z,1006.98
2023-01-03T01:44:57.099Z,1006.97
2023-01-03T01:45:07.341Z,1006.98
2023-01-03T01:45:17.607Z,1006.98
2023-01-03T01:45:27.845Z,1006.99
2023-01-03T01:45:38.091Z,1006.98
2023-01-03T01:45:48.333Z,1006.99
2023-01-03T01:45:58.643Z,1006.99
2023-01-03T01:46:08.954Z,1006.99
2023-01-03T01:46:19.209Z,1007.00
2023-01-03T01:46:29.468Z,1007.00
2023-01-03T01:46:39.785Z,1007.00
2023-01-03T01:46:50.111Z,1007.00
2023-01-03T01:47:00.412Z,1007.01
2023-01-03T01:47:10.643Z,1007.01
2023-01-03T01:47:20.890Z,1007.01
2023-01-03T01:47:31.141Z,1007.01
2023-01-03T01:47:41.392Z,1007.01
2023-01-03T01:47:51.648Z,1007.01
2023-01-03T01:48:01.878Z,1007.02
2023-01-03T01:48:12.157Z,1007.02
2023-01-03T01:48:22.363Z,1007.02
2023-01-03T01:48:32.607Z,1007.02
2023-01-03T01:48:42.872Z,1007.03
2023-01-03T01:48:53.105Z,1007.03
2023-01-03T01:49:03.354Z,1007.03
2023-01-03T01:49:13.649Z,1007.03
2023-01-03T01:49:23.862Z,1007.04
2023-01-03T01:49:34.106Z,1007.04
2023-01-03T01:49:44.350Z,1007.05
2023-01-03T01:49:54.593Z,1007.05
2023-01-03T01:50:04.843Z,1007.05
2023-01-03T01:50:15.112Z,1007.05
2023-01-03T01:50:25.363Z,1007.06
2023-01-03T01:50:35.608Z,1007.06
2023-01-03T01:50:45.880Z,1007.06
2023-01-03T01:50:56.088Z,1007.05
2023-01-03T01:51:06.358Z,1007.05
2023-01-03T01:51:16.608Z,1007.06
2023-01-03T01:51:26.852Z,1007.06
2023-01-03T01:51:37.200Z,1007.07
2023-01-03T01:51:47.401Z,1007.07
2023-01-03T01:51:57.666Z,1007.08
2023-01-03T01:52:07.907Z,1007.08
2023-01-03T01:52:18.141Z,1007.08
2023-01-03T01:52:28.413Z,1007.09
2023-01-03T01:52:38.663Z,1007.09
2023-01-03T01:52:48.886Z,1007.09
2023-01-03T01:52:59.140Z,1007.09
2023-01-03T01:53:09.380Z,1007.10
2023-01-03T01:53:19.621Z,1007.10
2023-01-03T01:53:29.869Z,1007.11
2023-01-03T01:53:40.120Z,1007.12
2023-01-03T01:53:50.355Z,1007.12
2023-01-03T01:54:00.630Z,1007.12
2023-01-03T01:54:10.910Z,1007.12
2023-01-03T01:54:21.115Z,1007.12
2023-01-03T01:54:31.360Z,1007.12
2023-01-03T01:54:41.605Z,1007.12
2023-01-03T01:54:51.844Z,1007.12
2023-01-03T01:55:02.112Z,1007.12
2023-01-03T01:55:12.348Z,1007.12
2023-01-03T01:55:22.608Z,1007.12
2023-01-03T01:55:32.873Z,1007.12
2023-01-03T01:55:43.091Z,1007.12
2023-01-03T01:55:53.337Z,1007.12
2023-01-03T01:56:03.603Z,1007.12
2023-01-03T01:56:13.859Z,1007.12
2023-01-03T01:56:24.095Z,1007.12
2023-01-03T01:56:34.347Z,1007.12
2023-01-03T01:56:44.585Z,1007.12
2023-01-03T01:56:54.834Z,1007.12
2023-01-03T01:57:05.080Z,1007.12
2023-01-03T01:57:15.323Z,1007.12
2023-01-03T01:57:25.568Z,1007.13
2023-01-03T01:57:35.814Z,1007.13
2023-01-03T01:57:46.060Z,1007.13
2023-01-03T01:57:56.310Z,1007.13
2023-01-03T01:58:06.563Z,1007.13
2023-01-03T01:58:16.805Z,1007.13
2023-01-03T01:58:27.053Z,1007.14
2023-01-03T01:58:37.300Z,1007.14
2023-01-03T01:58:47.541Z,1007.14
2023-01-03T01:58:57.803Z,1007.15
2023-01-03T01:59:08.051Z,1007.15
2023-01-03T01:59:18.286Z,1007.16
2023-01-03T01:59:28.544Z,1007.16
2023-01-03T01:59:38.779Z,1007.16
2023-01-03T01:59:49.029Z,1007.17
2023-01-03T01:59:59.267Z,1007.17
2023-01-03T02:00:09.517Z,1007.18
2023-01-03T02:00:19.753Z,1007.18
2023-01-03T02:00:30.021Z,1007.18
2023-01-03T02:00:40.246Z,1007.18
2023-01-03T02:00:50.487Z,1007.18
2023-01-03T02:01:00.751Z,1007.17
2023-01-03T02:01:11.113Z,1007.16
2023-01-03T02:01:21.332Z,1007.17
2023-01-03T02:01:31.705Z,1007.17
2023-01-03T02:01:42.117Z,1007.17
2023-01-03T02:01:52.581Z,1007.17
2023-01-03T02:02:03.019Z,1007.17
2023-01-03T02:02:13.228Z,1007.17
2023-01-03T02:02:23.676Z,1007.17
2023-01-03T02:02:34.056Z,1007.17
2023-01-03T02:02:44.473Z,1007.17
2023-01-03T02:02:54.523Z,1007.17
2023-01-03T02:03:05.043Z,1007.17
2023-01-03T02:03:15.277Z,1007.17
2023-01-03T02:03:25.375Z,1007.18
2023-01-03T02:03:35.652Z,1007.18
2023-01-03T02:03:46.028Z,1007.18
2023-01-03T02:03:56.252Z,1007.18
2023-01-03T02:04:06.485Z,1007.18